Time;durP1;ratioP1;P1;durP2;ratioP2;P2;SDS_P1;SDS_P2;PMS_P1;PMS_P2;Temp;Humidity;BMP_temperature;BMP_pressure;BME280_temperature;BME280_humidity;BME280_pressure;Samples;Min_cycle;Max_cycle;Signal;HPM_P1;HPM_P2
2023/10/21 00:01:20;;;;;;;13.75;6.22;;;;;;;11.24;100.00;98237.72;5081547;28;20055;-81
2023/10/21 00:03:45;;;;;;;18.13;6.78;;;;;;;11.23;100.00;98236.94;5084105;28;20074;-81
2023/10/21 00:06:11;;;;;;;10.13;5.47;;;;;;;11.21;100.00;98233.00;5080120;28;20461;-81
2023/10/21 00:08:36;;;;;;;11.43;6.05;;;;;;;11.19;100.00;98239.84;5078866;28;20028;-81
2023/10/21 00:11:03;;;;;;;10.13;5.97;;;;;;;11.17;100.00;98247.91;5068330;28;20065;-81
2023/10/21 00:13:28;;;;;;;9.35;5.65;;;;;;;11.21;100.00;98244.22;5076766;28;20481;-81
2023/10/21 00:15:54;;;;;;;10.90;5.72;;;;;;;11.18;100.00;98252.28;5081260;28;20028;-81
2023/10/21 00:18:19;;;;;;;7.95;5.47;;;;;;;11.12;100.00;98259.66;5083864;28;20501;-82
2023/10/21 00:20:44;;;;;;;10.23;6.18;;;;;;;11.14;100.00;98257.19;5084988;28;20032;-82
2023/10/21 00:23:10;;;;;;;10.48;5.15;;;;;;;11.07;100.00;98256.59;5078645;28;20039;-82
2023/10/21 00:25:35;;;;;;;10.75;5.45;;;;;;;11.11;100.00;98268.47;5075067;28;20020;-81
2023/10/21 00:28:00;;;;;;;12.82;6.30;;;;;;;11.08;100.00;98272.97;5061446;28;20486;-81
2023/10/21 00:30:26;;;;;;;9.35;5.45;;;;;;;11.06;100.00;98271.84;5066067;28;20035;-82
2023/10/21 00:32:51;;;;;;;8.80;5.13;;;;;;;11.03;100.00;98272.75;5082209;28;20102;-82
2023/10/21 00:35:16;;;;;;;12.05;5.65;;;;;;;11.02;100.00;98283.13;5084874;28;20110;-82
2023/10/21 00:37:42;;;;;;;8.82;5.53;;;;;;;11.04;100.00;98280.69;5082601;28;20147;-81
2023/10/21 00:40:08;;;;;;;11.68;5.38;;;;;;;10.97;100.00;98283.69;5084717;28;20577;-82
2023/10/21 00:42:33;;;;;;;9.43;5.45;;;;;;;10.95;100.00;98286.16;5058962;28;20024;-82
2023/10/21 00:44:59;;;;;;;9.18;5.88;;;;;;;10.90;100.00;98281.09;5075810;28;20025;-82
2023/10/21 00:47:25;;;;;;;10.23;4.88;;;;;;;10.93;100.00;98285.81;5080535;28;20082;-82
2023/10/21 00:49:52;;;;;;;11.88;5.65;;;;;;;10.92;100.00;98290.63;5080373;28;20032;-82
2023/10/21 00:52:18;;;;;;;10.48;6.10;;;;;;;10.89;100.00;98288.72;5079973;28;20024;-82
2023/10/21 00:54:43;;;;;;;9.88;6.05;;;;;;;10.82;100.00;98279.75;5080869;28;20350;-82
2023/10/21 00:57:09;;;;;;;14.40;6.47;;;;;;;10.89;100.00;98288.72;5083509;28;20085;-82
2023/10/21 00:59:35;;;;;;;14.63;6.20;;;;;;;10.86;100.00;98294.41;5062720;28;20039;-82
2023/10/21 01:02:00;;;;;;;10.57;5.57;;;;;;;10.85;100.00;98304.03;5085623;28;20032;-82
2023/10/21 01:04:26;;;;;;;10.02;5.53;;;;;;;10.85;100.00;98315.22;5088050;28;20060;-83
2023/10/21 01:06:53;;;;;;;10.82;6.43;;;;;;;10.87;100.00;98315.56;5085610;28;20032;-82
2023/10/21 01:09:19;;;;;;;10.43;5.35;;;;;;;10.86;100.00;98325.22;5084772;28;20472;-82
2023/10/21 01:11:44;;;;;;;8.45;6.07;;;;;;;10.82;100.00;98322.50;5073693;28;20035;-82
2023/10/21 01:14:09;;;;;;;8.65;5.75;;;;;;;10.87;100.00;98330.34;5085483;28;20408;-82
2023/10/21 01:16:35;;;;;;;10.07;5.50;;;;;;;10.83;100.00;98321.25;5076358;28;20038;-82
2023/10/21 01:19:00;;;;;;;9.70;4.93;;;;;;;10.83;100.00;98334.47;5084397;28;20448;-82
2023/10/21 01:21:26;;;;;;;9.40;5.60;;;;;;;10.83;100.00;98331.66;5066679;28;20028;-82
2023/10/21 01:23:52;;;;;;;9.57;4.53;;;;;;;10.85;100.00;98340.41;5084219;28;20024;-82
2023/10/21 01:26:17;;;;;;;9.68;5.63;;;;;;;10.77;100.00;98343.41;5066990;28;20063;-82
2023/10/21 01:28:42;;;;;;;9.90;5.55;;;;;;;10.82;100.00;98352.50;5065111;28;20474;-82
2023/10/21 01:31:08;;;;;;;7.30;4.40;;;;;;;10.85;100.00;98346.00;5069984;28;20147;-82
2023/10/21 01:33:33;;;;;;;9.98;5.55;;;;;;;10.83;100.00;98354.06;5068521;28;20036;-82
2023/10/21 01:35:58;;;;;;;8.18;5.38;;;;;;;10.80;100.00;98349.34;5078887;28;20041;-82
2023/10/21 01:38:24;;;;;;;7.28;4.72;;;;;;;10.78;100.00;98353.38;5060281;28;20043;-82
2023/10/21 01:40:50;;;;;;;11.48;5.05;;;;;;;10.82;100.00;98358.09;5065103;28;20024;-82
2023/10/21 01:43:15;;;;;;;8.70;5.18;;;;;;;10.79;100.00;98359.75;5081629;28;20446;-81
2023/10/21 01:45:41;;;;;;;11.50;5.68;;;;;;;10.81;100.00;98356.50;5064582;28;20546;-82
2023/10/21 01:48:08;;;;;;;11.00;5.70;;;;;;;10.80;100.00;98357.75;5066685;28;20039;-82
2023/10/21 01:50:34;;;;;;;7.88;5.50;;;;;;;10.76;100.00;98360.63;5087810;28;20038;-82
2023/10/21 01:52:59;;;;;;;13.68;5.85;;;;;;;10.73;100.00;98359.50;5081879;28;20552;-83
2023/10/21 01:55:25;;;;;;;8.32;6.18;;;;;;;10.76;100.00;98366.22;5082261;28;20523;-82
2023/10/21 01:57:50;;;;;;;10.45;5.68;;;;;;;10.73;100.00;98370.69;5064457;28;20025;-82
2023/10/21 02:00:18;;;;;;;9.75;5.35;;;;;;;10.71;100.00;98372.34;5054537;28;20044;-82
2023/10/21 02:02:51;;;;;;;9.90;5.70;;;;;;;10.71;100.00;98375.94;5065141;28;20055;-82
2023/10/21 02:05:17;;;;;;;9.82;6.18;;;;;;;10.72;100.00;98383.09;5084182;28;20154;-82
2023/10/21 02:07:42;;;;;;;10.70;6.28;;;;;;;10.70;100.00;98382.75;5075923;28;20144;-81
2023/10/21 02:10:08;;;;;;;9.77;5.63;;;;;;;10.67;100.00;98386.44;5076839;28;20515;-82
2023/10/21 02:12:33;;;;;;;13.40;5.45;;;;;;;10.69;100.00;98384.00;5080323;28;20027;-82
2023/10/21 02:14:59;;;;;;;13.77;5.97;;;;;;;10.72;100.00;98387.94;5061932;28;20028;-82
2023/10/21 02:17:24;;;;;;;11.25;6.55;;;;;;;10.70;100.00;98391.16;5061230;28;20020;-82
2023/10/21 02:19:57;;;;;;;10.68;5.63;;;;;;;10.71;100.00;98392.75;5059284;28;20028;-82
2023/10/21 02:22:26;;;;;;;9.65;6.10;;;;;;;10.73;100.00;98401.47;5051695;28;20020;-81
2023/10/21 02:24:55;;;;;;;11.90;5.88;;;;;;;10.71;100.00;98398.34;5081223;28;20064;-82
2023/10/21 02:27:21;;;;;;;11.45;6.47;;;;;;;10.69;100.00;98403.59;5081851;28;20032;-82
2023/10/21 02:29:46;;;;;;;14.20;7.65;;;;;;;10.65;100.00;98400.09;5080321;28;20031;-82
2023/10/21 02:32:11;;;;;;;11.48;7.03;;;;;;;10.66;100.00;98395.28;5047024;28;20124;-82
2023/10/21 02:34:37;;;;;;;11.05;6.38;;;;;;;10.68;100.00;98398.41;5073630;28;20020;-82
2023/10/21 02:37:02;;;;;;;11.20;6.45;;;;;;;10.66;100.00;98403.66;5060942;28;20020;-82
2023/10/21 02:39:28;;;;;;;16.10;6.93;;;;;;;10.65;100.00;98410.50;5078860;28;20489;-82
2023/10/21 02:41:54;;;;;;;14.35;8.40;;;;;;;10.69;100.00;98411.97;5069675;28;20036;-81
2023/10/21 02:44:19;;;;;;;13.63;8.02;;;;;;;10.66;100.00;98421.22;5056514;28;20024;-82
2023/10/21 02:46:45;;;;;;;12.93;8.55;;;;;;;10.67;100.00;98417.22;5069329;28;20036;-81
2023/10/21 02:49:10;;;;;;;14.65;7.90;;;;;;;10.66;100.00;98420.44;5080518;28;20033;-82
2023/10/21 02:51:35;;;;;;;12.93;7.22;;;;;;;10.67;100.00;98431.22;5084380;28;20031;-82
2023/10/21 02:54:01;;;;;;;19.13;7.70;;;;;;;10.62;100.00;98428.94;5085958;28;20687;-82
2023/10/21 02:56:26;;;;;;;15.55;8.35;;;;;;;10.62;100.00;98431.72;5086235;28;20495;-81
2023/10/21 02:58:52;;;;;;;11.90;7.07;;;;;;;10.64;100.00;98437.66;5061476;28;20029;-82
2023/10/21 03:01:19;;;;;;;15.25;8.45;;;;;;;10.65;100.00;98439.25;5067061;28;20138;-82
2023/10/21 03:03:47;;;;;;;14.07;8.35;;;;;;;10.67;100.00;98442.41;5080542;28;20040;-81
2023/10/21 03:06:13;;;;;;;13.80;7.53;;;;;;;10.66;100.00;98442.84;5078098;28;20044;-82
2023/10/21 03:08:39;;;;;;;14.82;7.25;;;;;;;10.64;100.00;98436.88;5066079;28;20031;-82
2023/10/21 03:11:06;;;;;;;18.92;8.73;;;;;;;10.64;100.00;98440.47;5083536;28;20028;-82
2023/10/21 03:13:33;;;;;;;17.27;9.57;;;;;;;10.60;100.00;98442.56;5078257;28;20506;-82
2023/10/21 03:15:59;;;;;;;14.25;8.18;;;;;;;10.60;100.00;98436.19;5079341;28;20035;-82
2023/10/21 03:18:24;;;;;;;14.95;7.95;;;;;;;10.62;100.00;98437.31;5064981;28;20072;-81
2023/10/21 03:20:50;;;;;;;15.10;10.00;;;;;;;10.56;100.00;98430.69;5062082;28;20024;-81
2023/10/21 03:23:16;;;;;;;20.08;10.98;;;;;;;10.59;100.00;98435.41;5079172;28;20043;-81
2023/10/21 03:25:41;;;;;;;16.33;8.60;;;;;;;10.60;100.00;98438.97;5061850;28;20495;-81
2023/10/21 03:28:06;;;;;;;13.18;8.60;;;;;;;10.60;100.00;98453.75;5082319;28;20028;-81
2023/10/21 03:30:32;;;;;;;17.83;9.32;;;;;;;10.59;100.00;98452.19;5068707;28;20043;-82
2023/10/21 03:32:57;;;;;;;14.35;7.70;;;;;;;10.58;100.00;98459.81;5086483;28;20032;-81
2023/10/21 03:35:22;;;;;;;16.25;8.20;;;;;;;10.62;100.00;98462.50;5080122;28;20032;-82
2023/10/21 03:37:47;;;;;;;16.95;9.80;;;;;;;10.63;100.00;98461.28;5063472;28;20041;-81
2023/10/21 03:40:13;;;;;;;19.70;10.30;;;;;;;10.59;100.00;98457.78;5082328;28;20103;-81
2023/10/21 03:42:39;;;;;;;20.27;11.38;;;;;;;10.60;100.00;98467.75;5089555;28;20028;-82
2023/10/21 03:45:05;;;;;;;16.58;9.35;;;;;;;10.63;100.00;98478.06;5067768;28;20028;-81
2023/10/21 03:47:30;;;;;;;23.92;12.18;;;;;;;10.65;100.00;98478.41;5064932;28;20020;-81
2023/10/21 03:49:57;;;;;;;22.45;11.57;;;;;;;10.69;100.00;98487.50;5059738;28;20508;-82
2023/10/21 03:52:23;;;;;;;18.33;10.32;;;;;;;10.67;100.00;98487.16;5060835;28;20489;-82
2023/10/21 03:54:48;;;;;;;20.63;10.57;;;;;;;10.67;100.00;98489.97;5062941;28;20027;-81
2023/10/21 03:57:13;;;;;;;23.75;12.35;;;;;;;10.71;100.00;98504.66;5062275;28;20101;-82
2023/10/21 03:59:39;;;;;;;22.13;11.82;;;;;;;10.68;100.00;98502.72;5084841;28;20031;-82
2023/10/21 04:02:04;;;;;;;23.73;11.70;;;;;;;10.68;100.00;98511.09;5079444;28;20039;-81
2023/10/21 04:04:29;;;;;;;20.95;11.82;;;;;;;10.66;100.00;98502.38;5083645;28;20036;-82
2023/10/21 04:06:55;;;;;;;19.70;11.70;;;;;;;10.70;100.00;98502.28;5071186;28;20032;-81
2023/10/21 04:09:20;;;;;;;21.48;12.73;;;;;;;10.72;100.00;98516.63;5076023;28;20461;-82
2023/10/21 04:11:45;;;;;;;23.15;12.35;;;;;;;10.70;100.00;98519.84;5075781;28;20496;-81
2023/10/21 04:14:11;;;;;;;19.05;10.82;;;;;;;10.68;100.00;98521.50;5062385;28;20020;-81
2023/10/21 04:16:36;;;;;;;23.63;10.50;;;;;;;10.67;100.00;98522.75;5084246;28;20085;-82
2023/10/21 04:19:02;;;;;;;23.23;12.23;;;;;;;10.73;100.00;98520.97;5081946;28;20036;-81
2023/10/21 04:21:27;;;;;;;22.73;11.88;;;;;;;10.69;100.00;98518.28;5064276;28;20031;-81
2023/10/21 04:23:53;;;;;;;22.95;12.98;;;;;;;10.70;100.00;98533.84;5064413;28;20063;-82
2023/10/21 04:26:18;;;;;;;23.30;12.23;;;;;;;10.66;100.00;98529.56;5080754;28;20024;-81
2023/10/21 04:28:43;;;;;;;26.35;13.07;;;;;;;10.69;100.00;98532.28;5081396;28;20059;-82
2023/10/21 04:31:08;;;;;;;23.27;12.38;;;;;;;10.68;100.00;98536.28;5062533;28;20060;-82
2023/10/21 04:33:34;;;;;;;22.42;12.15;;;;;;;10.71;100.00;98545.81;5068074;28;20040;-82
2023/10/21 04:36:00;;;;;;;22.85;12.60;;;;;;;10.71;100.00;98549.41;5077812;28;20079;-81
2023/10/21 04:38:25;;;;;;;20.67;13.27;;;;;;;10.72;100.00;98550.97;5084741;28;20127;-81
2023/10/21 04:40:50;;;;;;;19.10;11.35;;;;;;;10.71;100.00;98555.00;5081875;28;20069;-81
2023/10/21 04:43:16;;;;;;;22.50;12.80;;;;;;;10.74;100.00;98559.72;5070314;28;20051;-81
2023/10/21 04:45:41;;;;;;;29.90;13.48;;;;;;;10.73;100.00;98558.16;5088263;28;20110;-82
2023/10/21 04:48:07;;;;;;;22.13;13.48;;;;;;;10.74;100.00;98570.13;5090244;28;20077;-81
2023/10/21 04:50:32;;;;;;;28.02;13.23;;;;;;;10.73;100.00;98569.34;5067007;28;20032;-81
2023/10/21 04:52:57;;;;;;;23.27;11.85;;;;;;;10.70;100.00;98564.63;5082351;28;20508;-81
2023/10/21 04:55:23;;;;;;;22.50;13.35;;;;;;;10.72;100.00;98573.38;5063241;28;20047;-81
2023/10/21 04:57:48;;;;;;;22.13;11.80;;;;;;;10.73;100.00;98574.16;5079917;28;20109;-81
2023/10/21 05:00:14;;;;;;;25.83;12.82;;;;;;;10.77;100.00;98584.06;5057223;28;20380;-81
2023/10/21 05:02:40;;;;;;;23.65;13.70;;;;;;;10.76;100.00;98590.84;5076764;28;20132;-82
2023/10/21 05:05:06;;;;;;;23.67;13.27;;;;;;;10.72;100.00;98590.16;5084635;28;20035;-81
2023/10/21 05:07:31;;;;;;;25.40;13.05;;;;;;;10.73;100.00;98580.56;5080362;28;20016;-81
2023/10/21 05:09:57;;;;;;;21.95;12.07;;;;;;;10.72;100.00;98583.78;5078525;28;20031;-81
2023/10/21 05:12:22;;;;;;;23.70;13.73;;;;;;;10.73;100.00;98590.94;5058496;28;20039;-81
2023/10/21 05:14:50;;;;;;;20.20;11.93;;;;;;;10.74;100.00;98598.13;5075089;28;20143;-81
2023/10/21 05:17:17;;;;;;;23.27;13.02;;;;;;;10.73;100.00;98607.72;5077445;28;20505;-82
2023/10/21 05:19:42;;;;;;;25.08;13.02;;;;;;;10.74;100.00;98612.09;5075900;28;20063;-82
2023/10/21 05:22:07;;;;;;;23.42;12.35;;;;;;;10.73;100.00;98610.50;5077455;28;20068;-82
2023/10/21 05:24:33;;;;;;;19.00;12.18;;;;;;;10.76;100.00;98615.25;5075688;28;20405;-82
2023/10/21 05:26:58;;;;;;;21.45;12.85;;;;;;;10.72;100.00;98617.34;5062390;28;20397;-82
2023/10/21 05:29:24;;;;;;;18.73;12.30;;;;;;;10.72;100.00;98622.94;5077221;28;20051;-82
2023/10/21 05:31:50;;;;;;;25.77;12.95;;;;;;;10.74;100.00;98626.09;5060827;28;20035;-82
2023/10/21 05:34:18;;;;;;;21.75;11.93;;;;;;;10.74;100.00;98626.09;5063492;28;20482;-82
2023/10/21 05:36:44;;;;;;;23.10;11.38;;;;;;;10.72;100.00;98634.91;5075388;28;20122;-82
2023/10/21 05:39:11;;;;;;;21.30;11.50;;;;;;;10.76;100.00;98635.63;5053762;28;20040;-82
2023/10/21 05:41:37;;;;;;;27.92;13.45;;;;;;;10.80;100.00;98645.97;5061093;28;20032;-82
2023/10/21 05:44:03;;;;;;;22.90;13.00;;;;;;;10.80;100.00;98657.16;5074851;28;20076;-82
2023/10/21 05:46:28;;;;;;;23.48;12.02;;;;;;;10.73;100.00;98656.09;5081187;28;20047;-82
2023/10/21 05:48:54;;;;;;;23.48;12.43;;;;;;;10.74;100.00;98656.88;5078630;28;20020;-83
2023/10/21 05:51:19;;;;;;;19.20;11.35;;;;;;;10.74;100.00;98666.06;5064104;28;20036;-82
2023/10/21 05:53:45;;;;;;;23.23;11.50;;;;;;;10.75;100.00;98669.63;5066815;28;20035;-82
2023/10/21 05:56:12;;;;;;;22.13;12.88;;;;;;;10.87;100.00;98682.97;5071434;28;20367;-82
2023/10/21 05:58:39;;;;;;;21.63;11.75;;;;;;;10.88;100.00;98686.53;5060762;28;20028;-82
2023/10/21 06:01:06;;;;;;;23.23;12.77;;;;;;;10.86;100.00;98697.41;5074786;28;20082;-82
2023/10/21 06:03:32;;;;;;;21.83;11.23;;;;;;;10.88;100.00;98706.13;5061021;28;20422;-83
2023/10/21 06:05:57;;;;;;;20.00;11.80;;;;;;;10.86;100.00;98712.19;5056236;28;20033;-82
2023/10/21 06:08:23;;;;;;;17.67;9.75;;;;;;;10.82;100.00;98710.69;5061043;28;20067;-81
2023/10/21 06:10:48;;;;;;;21.05;11.93;;;;;;;10.86;100.00;98719.81;5064793;28;20039;-82
2023/10/21 06:13:13;;;;;;;21.67;12.20;;;;;;;10.85;100.00;98721.00;5055780;28;20033;-82
2023/10/21 06:15:39;;;;;;;17.75;11.05;;;;;;;10.83;100.00;98712.25;5056965;28;20033;-82
2023/10/21 06:18:04;;;;;;;19.55;10.88;;;;;;;10.84;100.00;98731.41;5056320;28;20037;-82
2023/10/21 06:20:29;;;;;;;19.25;10.55;;;;;;;10.88;100.00;98732.13;5056929;28;20038;-82
2023/10/21 06:22:55;;;;;;;21.98;11.68;;;;;;;10.87;100.00;98729.75;5060771;28;20419;-82
2023/10/21 06:25:21;;;;;;;19.13;11.05;;;;;;;10.83;100.00;98740.25;5059130;28;20107;-83
2023/10/21 06:27:46;;;;;;;16.45;10.82;;;;;;;10.84;100.00;98733.44;5055021;28;20439;-82
2023/10/21 06:30:12;;;;;;;17.20;10.30;;;;;;;10.91;100.00;98755.66;5058736;28;20071;-82
2023/10/21 06:32:37;;;;;;;17.40;10.82;;;;;;;10.90;100.00;98754.06;5054022;28;20063;-82
2023/10/21 06:35:02;;;;;;;16.33;10.38;;;;;;;10.91;100.00;98759.25;5055176;28;20390;-81
2023/10/21 06:37:28;;;;;;;15.82;9.85;;;;;;;10.95;100.00;98759.97;5059711;28;20024;-81
2023/10/21 06:39:53;;;;;;;18.38;10.50;;;;;;;10.91;100.00;98764.06;5058595;28;20040;-81
2023/10/21 06:42:18;;;;;;;20.63;11.18;;;;;;;10.94;100.00;98768.78;5055096;28;20035;-81
2023/10/21 06:44:44;;;;;;;20.02;10.82;;;;;;;10.89;100.00;98774.91;5057788;28;20029;-81
2023/10/21 06:47:09;;;;;;;17.15;9.55;;;;;;;10.96;100.00;98766.34;5055460;28;20024;-81
2023/10/21 06:49:35;;;;;;;16.88;9.90;;;;;;;10.97;100.00;98777.13;5057172;28;20064;-81
2023/10/21 06:52:00;;;;;;;18.08;9.68;;;;;;;11.05;100.00;98780.56;5053376;28;20029;-80
2023/10/21 06:54:26;;;;;;;18.67;9.48;;;;;;;11.07;100.00;98778.13;5055169;28;20036;-81
2023/10/21 06:56:54;;;;;;;24.75;11.07;;;;;;;11.10;100.00;98788.44;5056921;28;20546;-80
2023/10/21 06:59:19;;;;;;;17.50;9.10;;;;;;;11.07;100.00;98788.50;5054900;28;20036;-81
2023/10/21 07:01:46;;;;;;;15.48;9.48;;;;;;;11.04;100.00;98790.16;5055769;28;20458;-80
2023/10/21 07:04:11;;;;;;;16.58;10.10;;;;;;;11.13;100.00;98793.19;5071494;28;20490;-81
2023/10/21 07:06:38;;;;;;;19.90;9.52;;;;;;;11.10;100.00;98794.03;5075318;28;20115;-80
2023/10/21 07:09:03;;;;;;;15.70;9.20;;;;;;;11.07;100.00;98794.91;5074732;28;20048;-80
2023/10/21 07:11:29;;;;;;;19.95;8.70;;;;;;;11.12;100.00;98794.41;5058021;28;20032;-80
2023/10/21 07:13:54;;;;;;;28.08;10.40;;;;;;;11.09;100.00;98803.69;5057818;28;20024;-81
2023/10/21 07:16:19;;;;;;;18.05;9.32;;;;;;;11.08;100.00;98802.09;5056824;28;20032;-80
2023/10/21 07:18:45;;;;;;;21.23;9.07;;;;;;;11.09;100.00;98809.28;5058567;28;20036;-80
2023/10/21 07:21:10;;;;;;;12.10;7.40;;;;;;;11.04;100.00;98806.19;5061985;28;20542;-80
2023/10/21 07:23:35;;;;;;;12.80;7.70;;;;;;;11.10;100.00;98818.47;5056772;28;20028;-80
2023/10/21 07:26:02;;;;;;;17.05;8.50;;;;;;;11.17;100.00;98821.91;5076143;28;20036;-80
2023/10/21 07:28:28;;;;;;;14.50;8.52;;;;;;;11.15;100.00;98829.94;5066202;28;20390;-80
2023/10/21 07:30:54;;;;;;;12.35;8.07;;;;;;;11.21;100.00;98821.03;5059585;28;20024;-80
2023/10/21 07:33:20;;;;;;;13.10;7.88;;;;;;;11.20;100.00;98828.66;5081869;28;20060;-80
2023/10/21 07:35:50;;;;;;;17.08;8.00;;;;;;;11.33;100.00;98828.78;5079080;28;20073;-80
2023/10/21 07:38:15;;;;;;;14.55;8.43;;;;;;;11.31;100.00;98832.00;5078999;28;20030;-80
2023/10/21 07:40:41;;;;;;;15.60;8.68;;;;;;;11.28;100.00;98832.88;5084429;28;20107;-80
2023/10/21 07:43:07;;;;;;;15.13;7.60;;;;;;;11.43;100.00;98838.19;5063483;28;20039;-80
2023/10/21 07:45:32;;;;;;;14.57;7.45;;;;;;;11.53;100.00;98840.75;5063181;28;20043;-80
2023/10/21 07:47:57;;;;;;;11.55;7.95;;;;;;;11.34;100.00;98847.97;5082945;28;20112;-80
2023/10/21 07:50:23;;;;;;;14.40;8.45;;;;;;;11.63;100.00;98843.72;5060214;28;20107;-80
2023/10/21 07:52:48;;;;;;;12.68;7.35;;;;;;;11.60;100.00;98848.97;5072856;28;20028;-80
2023/10/21 07:55:14;;;;;;;16.45;8.30;;;;;;;11.66;100.00;98845.66;5056792;28;20016;-80
2023/10/21 07:57:40;;;;;;;15.40;7.93;;;;;;;11.65;100.00;98850.47;5078378;28;20032;-80
2023/10/21 08:00:06;;;;;;;18.10;8.55;;;;;;;11.69;100.00;98856.78;5081354;28;20032;-81
2023/10/21 08:02:32;;;;;;;16.27;8.18;;;;;;;11.86;100.00;98862.44;5075774;28;20036;-81
2023/10/21 08:04:57;;;;;;;14.23;7.65;;;;;;;11.85;100.00;98869.25;5082118;28;20111;-80
2023/10/21 08:07:22;;;;;;;11.77;6.63;;;;;;;11.86;100.00;98866.00;5079115;28;20053;-80
2023/10/21 08:09:48;;;;;;;13.10;7.28;;;;;;;11.91;100.00;98865.53;5067070;28;20525;-80
2023/10/21 08:12:13;;;;;;;13.20;7.65;;;;;;;12.02;100.00;98876.50;5079842;28;20047;-80
2023/10/21 08:14:40;;;;;;;12.23;7.57;;;;;;;12.15;100.00;98873.78;5081926;28;20558;-79
2023/10/21 08:17:06;;;;;;;15.07;7.32;;;;;;;12.22;100.00;98876.41;5076543;28;20519;-80
2023/10/21 08:19:31;;;;;;;14.95;8.32;;;;;;;12.32;100.00;98877.38;5067321;28;20058;-80
2023/10/21 08:21:57;;;;;;;15.10;7.57;;;;;;;12.36;100.00;98881.66;5074097;28;20028;-80
2023/10/21 08:24:23;;;;;;;14.40;8.07;;;;;;;12.46;100.00;98888.25;5067830;28;20040;-80
2023/10/21 08:26:49;;;;;;;14.45;6.78;;;;;;;12.65;100.00;98897.78;5078629;28;20085;-81
2023/10/21 08:29:14;;;;;;;19.38;7.70;;;;;;;12.52;100.00;98894.91;5080877;28;20023;-80
2023/10/21 08:31:40;;;;;;;16.48;7.50;;;;;;;12.60;100.00;98898.31;5085507;28;20031;-80
2023/10/21 08:34:09;;;;;;;14.68;8.40;;;;;;;12.70;100.00;98904.88;5059723;28;20115;-80
2023/10/21 08:36:35;;;;;;;13.30;6.80;;;;;;;12.67;100.00;98909.38;5063289;28;20046;-80
2023/10/21 08:39:01;;;;;;;11.85;7.00;;;;;;;12.68;100.00;98908.13;5079965;28;20750;-80
2023/10/21 08:41:33;;;;;;;13.25;6.68;;;;;;;12.64;100.00;98913.03;5060573;28;20069;-79
2023/10/21 08:43:59;;;;;;;11.07;7.05;;;;;;;12.63;100.00;98921.91;5074982;28;20396;-80
2023/10/21 08:46:26;;;;;;;12.40;5.65;;;;;;;12.67;100.00;98929.03;5077981;28;20371;-80
2023/10/21 08:48:52;;;;;;;9.32;6.55;;;;;;;12.63;100.00;98927.50;5065001;28;20048;-80
2023/10/21 08:51:20;;;;;;;10.30;5.82;;;;;;;12.71;100.00;98935.34;5078083;28;20071;-80
2023/10/21 08:53:47;;;;;;;11.25;5.63;;;;;;;12.62;100.00;98929.53;5059119;28;20032;-80
2023/10/21 08:56:14;;;;;;;8.38;5.72;;;;;;;12.70;100.00;98947.78;5059072;28;20028;-80
2023/10/21 08:58:39;;;;;;;8.32;5.03;;;;;;;12.70;100.00;98950.59;5060403;28;20028;-80
2023/10/21 09:01:05;;;;;;;10.25;6.40;;;;;;;12.68;100.00;98949.44;5059795;28;20428;-80
2023/10/21 09:03:32;;;;;;;13.23;5.63;;;;;;;12.66;100.00;98954.72;5079361;28;20512;-81
2023/10/21 09:06:13;;;;;;;8.60;6.18;;;;;;;12.80;100.00;98960.75;5075147;28;20397;-80
2023/10/21 09:08:40;;;;;;;8.35;5.30;;;;;;;12.73;100.00;98960.94;5059648;28;20028;-80
2023/10/21 09:11:06;;;;;;;8.52;5.53;;;;;;;12.69;100.00;98965.06;5063335;28;20113;-80
2023/10/21 09:13:36;;;;;;;7.75;4.85;;;;;;;12.82;100.00;98968.75;5058162;28;20031;-79
2023/10/21 09:16:19;;;;;;;8.70;5.00;;;;;;;12.82;100.00;98980.75;5073523;28;20679;-79
2023/10/21 09:18:59;;;;;;;;;;;;;;;12.73;100.00;98980.59;5074684;28;20043;-79
2023/10/21 09:21:42;;;;;;;7.97;5.05;;;;;;;12.60;100.00;98982.50;5055776;28;19960;-80
2023/10/21 09:24:12;;;;;;;;;;;;;;;12.77;100.00;98989.69;5060300;28;20036;-80
2023/10/21 09:26:39;;;;;;;6.10;5.03;;;;;;;12.82;100.00;98992.00;5075690;28;20413;-80
2023/10/21 09:29:06;;;;;;;8.75;4.47;;;;;;;12.81;100.00;98995.22;5075328;28;20093;-80
2023/10/21 09:31:54;;;;;;;8.70;4.75;;;;;;;12.73;100.00;99007.88;5078935;28;20089;-81
2023/10/21 09:34:37;;;;;;;5.40;3.45;;;;;;;12.64;100.00;99005.66;5078153;28;20035;-80
2023/10/21 09:37:04;;;;;;;7.03;3.97;;;;;;;12.58;100.00;99011.00;5072470;28;20031;-80
2023/10/21 09:39:38;;;;;;;6.38;3.70;;;;;;;12.71;100.00;99008.31;5057748;28;20024;-80
2023/10/21 09:42:05;;;;;;;5.10;2.90;;;;;;;12.53;100.00;99042.41;5072858;28;20032;-81
2023/10/21 09:44:31;;;;;;;6.43;2.85;;;;;;;12.55;100.00;99039.19;5074658;28;20870;-81
2023/10/21 09:46:58;;;;;;;3.80;2.63;;;;;;;12.74;100.00;99046.72;5064777;28;20040;-80
2023/10/21 09:49:25;;;;;;;6.13;3.10;;;;;;;12.54;100.00;99040.38;5058823;28;20536;-81
2023/10/21 09:52:07;;;;;;;3.97;2.50;;;;;;;12.73;100.00;99045.16;5074573;28;20389;-81
2023/10/21 09:54:42;;;;;;;3.38;1.95;;;;;;;12.89;100.00;99063.25;5078296;28;20040;-81
2023/10/21 09:57:12;;;;;;;4.18;1.95;;;;;;;12.88;100.00;99067.25;5057698;28;20024;-80
2023/10/21 09:59:40;;;;;;;2.97;2.30;;;;;;;12.89;100.00;99063.25;5075445;28;20604;-81
2023/10/21 10:02:09;;;;;;;4.97;1.95;;;;;;;13.01;100.00;99071.75;5083930;28;20024;-81
2023/10/21 10:04:38;;;;;;;3.42;1.88;;;;;;;13.02;100.00;99078.16;5057480;28;20024;-81
2023/10/21 10:07:07;;;;;;;3.83;1.58;;;;;;;13.05;100.00;99085.72;5075106;28;20062;-82
2023/10/21 10:09:36;;;;;;;3.92;2.22;;;;;;;13.03;100.00;99082.56;5062473;28;20055;-82
2023/10/21 10:12:06;;;;;;;5.70;1.85;;;;;;;13.04;100.00;99081.31;5079619;28;20038;-83
2023/10/21 10:14:33;;;;;;;3.90;1.52;;;;;;;13.09;100.00;99086.44;5073143;28;20062;-81
2023/10/21 10:16:59;;;;;;;2.85;1.67;;;;;;;13.03;100.00;99085.38;5074239;28;20582;-81
2023/10/21 10:19:53;;;;;;;1.85;1.10;;;;;;;13.05;100.00;99099.75;5062172;28;20028;-82
2023/10/21 10:22:21;;;;;;;2.00;1.30;;;;;;;12.98;100.00;99094.31;5073236;28;20047;-81
2023/10/21 10:25:10;;;;;;;2.47;1.38;;;;;;;12.98;100.00;99106.31;5081697;28;20477;-83
2023/10/21 10:27:40;;;;;;;2.78;1.23;;;;;;;12.96;100.00;99120.00;5070937;28;20407;-82
2023/10/21 10:30:15;;;;;;;2.03;1.02;;;;;;;12.95;100.00;99117.66;5069813;28;20034;-82
2023/10/21 10:32:43;;;;;;;4.03;1.40;;;;;;;12.93;100.00;99117.31;5062013;28;20074;-82
2023/10/21 10:35:09;;;;;;;1.70;1.38;;;;;;;13.00;100.00;99119.94;5081182;28;20089;-82
2023/10/21 10:37:36;;;;;;;2.35;1.58;;;;;;;13.00;100.00;99126.34;5079808;28;20032;-82
2023/10/21 10:40:32;;;;;;;2.05;1.13;;;;;;;13.02;100.00;99137.91;5062493;28;20033;-81
2023/10/21 10:42:58;;;;;;;1.00;0.90;;;;;;;12.95;100.00;99140.91;5073742;28;20036;-82
2023/10/21 10:45:24;;;;;;;2.53;1.10;;;;;;;12.97;100.00;99143.28;5076234;28;20069;-82
2023/10/21 10:48:01;;;;;;;0.60;0.60;;;;;;;12.96;100.00;99152.91;5064111;28;20125;-82
2023/10/21 10:50:26;;;;;;;5.75;1.17;;;;;;;13.00;100.00;99160.03;5061054;28;20560;-82
2023/10/21 10:52:53;;;;;;;4.13;0.95;;;;;;;13.00;100.00;99154.41;5064955;28;20035;-81
2023/10/21 10:55:19;;;;;;;2.67;1.13;;;;;;;13.03;100.00;99161.19;5077903;28;20040;-81
2023/10/21 10:57:45;;;;;;;2.72;0.90;;;;;;;13.02;100.00;99160.38;5077380;28;20039;-81
2023/10/21 11:00:13;;;;;;;1.25;1.05;;;;;;;13.07;100.00;99159.09;5063762;28;20024;-81
2023/10/21 11:02:44;;;;;;;0.75;0.57;;;;;;;13.09;100.00;99156.66;5081469;28;20047;-81
2023/10/21 11:05:20;;;;;;;2.65;1.15;;;;;;;13.15;100.00;99165.31;5057839;28;20028;-81
2023/10/21 11:07:55;;;;;;;2.38;0.90;;;;;;;13.14;100.00;99158.13;5070919;28;20084;-81
2023/10/21 11:10:22;;;;;;;1.73;0.98;;;;;;;13.18;100.00;99176.50;5076422;28;20436;-81
2023/10/21 11:12:48;;;;;;;3.05;0.90;;;;;;;13.15;100.00;99166.09;5062497;28;20036;-81
2023/10/21 11:15:14;;;;;;;1.63;0.75;;;;;;;13.21;100.00;99175.59;5062197;28;20048;-81